createdAt,value
2023-04-16T00:02:01.640Z,100131.97
2023-04-16T00:04:28.551Z,100136.13
2023-04-16T00:06:55.556Z,100135.28
2023-04-16T00:09:22.318Z,100141.56
2023-04-16T00:11:49.048Z,100140.03
2023-04-16T00:14:15.865Z,100143.00
2023-04-16T00:16:42.657Z,100146.75
2023-04-16T00:19:10.067Z,100148.56
2023-04-16T00:21:37.018Z,100150.22
2023-04-16T00:24:03.807Z,100149.41
2023-04-16T00:26:31.004Z,100138.56
2023-04-16T00:28:58.498Z,100137.06
2023-04-16T00:31:29.848Z,100155.50
2023-04-16T00:33:57.139Z,100149.72
2023-04-16T00:36:24.804Z,100155.66
2023-04-16T00:38:51.871Z,100142.34
2023-04-16T00:41:18.768Z,100157.34
2023-04-16T00:43:45.678Z,100166.41
2023-04-16T00:46:13.168Z,100149.47
2023-04-16T00:48:41.342Z,100159.44
2023-04-16T00:51:08.884Z,100170.88
2023-04-16T00:53:35.874Z,100167.00
2023-04-16T00:56:07.424Z,100168.78
2023-04-16T00:58:35.667Z,100179.22
2023-04-16T01:01:02.732Z,100179.91
2023-04-16T01:03:39.658Z,100168.63
2023-04-16T01:06:07.590Z,100170.63
2023-04-16T01:08:34.361Z,100178.25
2023-04-16T01:11:01.560Z,100172.00
2023-04-16T01:13:28.368Z,100169.38
2023-04-16T01:15:55.220Z,100178.25
2023-04-16T01:18:23.370Z,100179.63
2023-04-16T01:20:51.378Z,100169.84
2023-04-16T01:23:19.165Z,100174.19
2023-04-16T01:25:47.291Z,100177.69
2023-04-16T01:28:14.279Z,100179.81
2023-04-16T01:30:41.560Z,100167.97
2023-04-16T01:33:33.891Z,100172.28
2023-04-16T01:36:00.911Z,100160.50
2023-04-16T01:38:27.723Z,100165.63
2023-04-16T01:40:58.048Z,100155.06
2023-04-16T01:43:25.121Z,100155.47
2023-04-16T01:45:54.110Z,100153.22
2023-04-16T01:48:20.832Z,100161.72
2023-04-16T01:50:47.581Z,100151.81
2023-04-16T01:53:14.321Z,100159.75
2023-04-16T01:55:41.055Z,100155.41
2023-04-16T01:58:10.660Z,100150.13
2023-04-16T02:00:37.916Z,100158.22
2023-04-16T02:03:04.863Z,100162.69
2023-04-16T02:05:31.729Z,100161.97
2023-04-16T02:07:58.621Z,100158.66
2023-04-16T02:10:25.499Z,100156.69
2023-04-16T02:12:52.384Z,100155.88
2023-04-16T02:15:19.260Z,100155.19
2023-04-16T02:17:46.819Z,100152.25
2023-04-16T02:20:13.748Z,100167.13
2023-04-16T02:22:52.385Z,100167.13
2023-04-16T02:25:22.410Z,100160.19
2023-04-16T02:27:49.997Z,100152.41
2023-04-16T02:30:25.386Z,100159.06
2023-04-16T02:32:53.086Z,100159.06
2023-04-16T02:35:20.667Z,100152.41
2023-04-16T02:37:47.692Z,100137.25
2023-04-16T02:40:14.824Z,100157.25
2023-04-16T02:42:41.927Z,100151.94
2023-04-16T02:45:09.961Z,100152.94
2023-04-16T02:47:36.973Z,100154.44
2023-04-16T02:50:04.127Z,100155.25
2023-04-16T02:52:32.352Z,100163.19
2023-04-16T02:54:59.759Z,100163.09
2023-04-16T02:57:26.713Z,100154.75
2023-04-16T02:59:53.574Z,100165.19
2023-04-16T03:02:20.713Z,100169.66
2023-04-16T03:04:47.435Z,100173.41
2023-04-16T03:07:14.511Z,100180.50
2023-04-16T03:09:41.537Z,100181.50
2023-04-16T03:12:08.434Z,100184.81
2023-04-16T03:14:35.154Z,100180.50
2023-04-16T03:17:01.951Z,100190.81
2023-04-16T03:19:28.703Z,100186.31
2023-04-16T03:21:55.866Z,100195.09
2023-04-16T03:24:22.890Z,100193.44
2023-04-16T03:26:49.703Z,100190.09
2023-04-16T03:29:16.606Z,100182.47
2023-04-16T03:31:43.900Z,100198.72
2023-04-16T03:34:10.895Z,100196.75
2023-04-16T03:36:39.884Z,100209.69
2023-04-16T03:39:07.168Z,100211.50
2023-04-16T03:41:34.090Z,100220.97
2023-04-16T03:44:00.871Z,100224.28
2023-04-16T03:46:27.679Z,100227.19
2023-04-16T03:48:54.575Z,100237.09
2023-04-16T03:51:21.564Z,100235.38
2023-04-16T03:53:48.288Z,100237.22
2023-04-16T03:56:15.048Z,100243.06
2023-04-16T03:58:41.779Z,100238.88
2023-04-16T04:01:08.719Z,100247.22
2023-04-16T04:03:37.137Z,100240.56
2023-04-16T04:06:10.672Z,100248.19
2023-04-16T04:08:37.556Z,100255.47
2023-04-16T04:11:05.332Z,100249.41
2023-04-16T04:13:33.943Z,100255.31
2023-04-16T04:16:00.996Z,100243.88
2023-04-16T04:18:28.771Z,100253.94
2023-04-16T04:20:55.554Z,100235.31
2023-04-16T04:23:26.955Z,100238.63
2023-04-16T04:25:53.935Z,100249.47
2023-04-16T04:28:20.789Z,100246.28
2023-04-16T04:30:47.850Z,100254.50
2023-04-16T04:33:14.649Z,100239.78
2023-04-16T04:35:42.247Z,100254.78
2023-04-16T04:38:09.052Z,100257.28
2023-04-16T04:40:36.050Z,100258.28
2023-04-16T04:43:03.754Z,100265.06
2023-04-16T04:45:31.929Z,100262.56
2023-04-16T04:47:59.126Z,100257.59
2023-04-16T04:50:26.353Z,100259.41
2023-04-16T04:52:53.099Z,100266.75
2023-04-16T04:55:19.975Z,100272.84
2023-04-16T04:57:46.786Z,100266.22
2023-04-16T05:00:13.676Z,100268.16
2023-04-16T05:03:02.142Z,100272.03
2023-04-16T05:05:28.951Z,100270.50
2023-04-16T05:07:55.749Z,100279.53
2023-04-16T05:10:22.566Z,100279.25
2023-04-16T05:12:49.390Z,100275.91
2023-04-16T05:15:17.033Z,100269.53
2023-04-16T05:17:43.779Z,100281.19
2023-04-16T05:20:10.915Z,100285.22
2023-04-16T05:22:37.808Z,100274.69
2023-04-16T05:25:04.834Z,100291.63
2023-04-16T05:27:31.898Z,100293.31
2023-04-16T05:29:58.619Z,100300.69
2023-04-16T05:32:27.145Z,100296.25
2023-04-16T05:34:54.044Z,100302.38
2023-04-16T05:37:20.781Z,100303.88
2023-04-16T05:39:47.786Z,100287.34
2023-04-16T05:42:14.505Z,100297.19
2023-04-16T05:44:41.229Z,100293.00
2023-04-16T05:47:09.456Z,100295.28
2023-04-16T05:49:39.466Z,100310.72
2023-04-16T05:52:07.407Z,100303.19
2023-04-16T05:54:34.377Z,100304.97
2023-04-16T05:57:02.091Z,100314.03
2023-04-16T05:59:29.440Z,100306.50
2023-04-16T06:01:56.356Z,100311.78
2023-04-16T06:04:23.402Z,100315.56
2023-04-16T06:06:50.203Z,100320.44
2023-04-16T06:09:18.319Z,100309.84
2023-04-16T06:11:45.161Z,100312.25
2023-04-16T06:14:11.902Z,100329.75
2023-04-16T06:16:38.672Z,100332.97
2023-04-16T06:19:05.597Z,100330.59
2023-04-16T06:21:32.533Z,100325.63
2023-04-16T06:23:59.359Z,100335.91
2023-04-16T06:26:26.783Z,100331.28
2023-04-16T06:28:53.551Z,100340.59
2023-04-16T06:31:20.683Z,100340.22
2023-04-16T06:33:47.569Z,100339.97
2023-04-16T06:36:14.530Z,100338.00
2023-04-16T06:38:41.284Z,100328.16
2023-04-16T06:41:08.071Z,100343.59
2023-04-16T06:43:34.955Z,100340.66
2023-04-16T06:46:01.682Z,100343.75
2023-04-16T06:48:28.418Z,100339.41
2023-04-16T06:50:56.751Z,100325.09
2023-04-16T06:53:23.986Z,100333.84
2023-04-16T06:55:51.851Z,100341.91
2023-04-16T06:58:18.505Z,100335.22
2023-04-16T07:00:46.168Z,100328.81
2023-04-16T07:03:13.192Z,100341.63
2023-04-16T07:05:40.082Z,100335.50
2023-04-16T07:08:06.915Z,100344.72
2023-04-16T07:10:33.633Z,100343.88
2023-04-16T07:13:01.651Z,100345.16
2023-04-16T07:15:28.744Z,100344.19
2023-04-16T07:17:55.679Z,100349.03
2023-04-16T07:20:22.563Z,100353.88
2023-04-16T07:22:49.560Z,100350.28
2023-04-16T07:25:16.256Z,100344.41
2023-04-16T07:27:43.006Z,100354.59
2023-04-16T07:30:09.864Z,100351.66
2023-04-16T07:32:36.758Z,100356.38
2023-04-16T07:35:03.894Z,100361.13
2023-04-16T07:37:31.077Z,100356.78
2023-04-16T07:39:57.794Z,100367.41
2023-04-16T07:42:24.508Z,100375.34
2023-04-16T07:44:51.269Z,100358.66
2023-04-16T07:47:18.077Z,100380.47
2023-04-16T07:49:44.812Z,100378.56
2023-04-16T07:52:12.024Z,100373.66
2023-04-16T07:54:38.759Z,100373.09
2023-04-16T07:57:05.687Z,100375.44
2023-04-16T07:59:32.397Z,100378.63
2023-04-16T08:01:59.320Z,100377.66
2023-04-16T08:04:26.654Z,100384.19
2023-04-16T08:06:54.075Z,100385.03
2023-04-16T08:09:22.413Z,100392.09
2023-04-16T08:11:49.929Z,100399.34
2023-04-16T08:14:17.278Z,100396.66
2023-04-16T08:16:44.157Z,100400.56
2023-04-16T08:19:11.035Z,100411.41
2023-04-16T08:21:38.048Z,100410.44
2023-04-16T08:24:04.815Z,100418.97
2023-04-16T08:26:31.530Z,100415.22
2023-04-16T08:29:01.565Z,100405.19
2023-04-16T08:31:28.783Z,100403.81
2023-04-16T08:33:55.546Z,100402.44
2023-04-16T08:36:22.243Z,100398.25
2023-04-16T08:38:48.993Z,100410.91
2023-04-16T08:41:16.145Z,100399.91
2023-04-16T08:43:45.687Z,100386.56
2023-04-16T08:46:12.846Z,100397.50
2023-04-16T08:48:42.931Z,100402.81
2023-04-16T08:51:10.724Z,100407.91
2023-04-16T08:53:48.544Z,100400.25
2023-04-16T08:56:19.809Z,100395.81
2023-04-16T08:58:48.854Z,100397.47
2023-04-16T09:01:18.073Z,100408.78
2023-04-16T09:03:47.859Z,100415.97
2023-04-16T09:06:16.530Z,100405.84
2023-04-16T09:08:46.760Z,100423.38
2023-04-16T09:11:20.156Z,100411.41
2023-04-16T09:13:47.647Z,100425.00
2023-04-16T09:16:15.392Z,100427.22
2023-04-16T09:18:42.304Z,100424.75
2023-04-16T09:21:13.004Z,100425.84
2023-04-16T09:23:40.651Z,100423.31
2023-04-16T09:26:07.430Z,100422.81
2023-04-16T09:28:48.518Z,100438.50
2023-04-16T09:31:17.594Z,100429.88
2023-04-16T09:34:01.369Z,100419.59
2023-04-16T09:36:28.556Z,100432.28
2023-04-16T09:38:57.586Z,100436.44
2023-04-16T09:41:39.757Z,100431.16
2023-04-16T09:44:06.580Z,100432.13
2023-04-16T09:46:41.177Z,100435.47
2023-04-16T09:49:12.549Z,100441.34
2023-04-16T09:51:52.830Z,100436.44
2023-04-16T09:54:20.551Z,100411.81
2023-04-16T09:56:47.552Z,100418.72
2023-04-16T09:59:22.102Z,100430.41
2023-04-16T10:01:50.034Z,100426.06
2023-04-16T10:04:17.155Z,100413.34
2023-04-16T10:06:44.260Z,100416.66
2023-04-16T10:09:11.305Z,100423.03
2023-04-16T10:11:39.551Z,100416.66
2023-04-16T10:14:06.382Z,100423.19
2023-04-16T10:16:33.818Z,100424.91
2023-04-16T10:19:00.768Z,100419.94
2023-04-16T10:21:33.830Z,100416.25
2023-04-16T10:24:01.808Z,100412.34
2023-04-16T10:26:30.603Z,100420.91
2023-04-16T10:28:58.805Z,100422.72
2023-04-16T10:31:26.374Z,100415.31
2023-04-16T10:33:53.804Z,100419.41
2023-04-16T10:36:26.461Z,100408.34
2023-04-16T10:38:57.925Z,100414.03
2023-04-16T10:41:26.683Z,100407.75
2023-04-16T10:43:54.041Z,100415.09
2023-04-16T10:46:31.558Z,100404.19
2023-04-16T10:49:12.226Z,100388.59
2023-04-16T10:51:39.280Z,100410.25
2023-04-16T10:54:08.919Z,100407.44
2023-04-16T10:56:37.323Z,100395.47
2023-04-16T10:59:10.895Z,100402.00
2023-04-16T11:01:45.716Z,100403.34
2023-04-16T11:04:22.019Z,100392.97
2023-04-16T11:07:16.712Z,100400.72
2023-04-16T11:10:06.610Z,100393.97
2023-04-16T11:12:40.612Z,100392.72
2023-04-16T11:15:10.332Z,100388.41
2023-04-16T11:17:43.032Z,100396.44
2023-04-16T11:20:23.941Z,100393.88
2023-04-16T11:22:53.127Z,100385.91
2023-04-16T11:25:25.974Z,100391.28
2023-04-16T11:27:53.830Z,100393.63
2023-04-16T11:30:33.827Z,100390.41
2023-04-16T11:33:18.827Z,100397.50
2023-04-16T11:35:57.931Z,100391.19
2023-04-16T11:38:36.459Z,100395.72
2023-04-16T11:41:03.588Z,100393.19
2023-04-16T11:43:30.333Z,100391.16
2023-04-16T11:46:10.037Z,100391.00
2023-04-16T11:48:51.291Z,100389.53
2023-04-16T11:51:19.163Z,100380.38
2023-04-16T11:53:56.185Z,100388.81
2023-04-16T11:56:28.551Z,100394.22
2023-04-16T11:59:13.449Z,100374.50
2023-04-16T12:01:42.251Z,100354.03
2023-04-16T12:04:09.231Z,100379.22
2023-04-16T12:06:36.704Z,100376.91
2023-04-16T12:09:23.206Z,100374.47
2023-04-16T12:11:49.927Z,100372.69
2023-04-16T12:14:16.617Z,100374.28
2023-04-16T12:16:43.474Z,100364.63
2023-04-16T12:19:12.498Z,100376.91
2023-04-16T12:21:44.860Z,100368.25
2023-04-16T12:24:14.191Z,100368.47
2023-04-16T12:26:46.729Z,100370.69
2023-04-16T12:29:21.691Z,100349.13
2023-04-16T12:31:50.083Z,100356.19
2023-04-16T12:34:17.639Z,100367.16
2023-04-16T12:36:46.108Z,100364.97
2023-04-16T12:39:13.770Z,100358.66
2023-04-16T12:41:42.281Z,100366.97
2023-04-16T12:44:16.032Z,100357.47
2023-04-16T12:46:44.017Z,100373.03
2023-04-16T12:49:11.628Z,100363.38
2023-04-16T12:51:38.993Z,100370.22
2023-04-16T12:54:09.904Z,100365.06
2023-04-16T12:56:36.751Z,100380.00
2023-04-16T12:59:03.633Z,100375.84
2023-04-16T13:01:30.914Z,100375.69
2023-04-16T13:03:57.893Z,100373.84
2023-04-16T13:06:24.845Z,100371.94
2023-04-16T13:08:51.551Z,100371.28
2023-04-16T13:11:19.309Z,100359.63
2023-04-16T13:13:46.119Z,100365.63
2023-04-16T13:16:12.957Z,100357.31
2023-04-16T13:18:40.257Z,100353.34
2023-04-16T13:21:07.106Z,100355.00
2023-04-16T13:23:35.604Z,100364.34
2023-04-16T13:26:02.295Z,100363.31
2023-04-16T13:28:28.994Z,100363.78
2023-04-16T13:30:55.868Z,100360.09
2023-04-16T13:33:22.622Z,100348.66
2023-04-16T13:35:50.123Z,100357.66
2023-04-16T13:38:17.296Z,100353.78
2023-04-16T13:40:44.710Z,100348.16
2023-04-16T13:43:11.655Z,100355.28
2023-04-16T13:45:38.674Z,100349.47
2023-04-16T13:48:05.708Z,100345.50
2023-04-16T13:50:32.464Z,100357.94
2023-04-16T13:52:59.251Z,100343.69
2023-04-16T13:55:26.235Z,100350.81
2023-04-16T13:57:53.444Z,100349.66
2023-04-16T14:00:20.488Z,100352.13
2023-04-16T14:02:48.847Z,100344.63
2023-04-16T14:05:16.117Z,100344.81
2023-04-16T14:07:42.865Z,100340.34
2023-04-16T14:10:10.102Z,100338.69
2023-04-16T14:12:38.155Z,100345.97
2023-04-16T14:15:06.826Z,100352.94
2023-04-16T14:17:33.757Z,100340.19
2023-04-16T14:20:00.751Z,100338.00
2023-04-16T14:22:27.482Z,100339.84
2023-04-16T14:24:54.138Z,100346.13
2023-04-16T14:27:21.115Z,100342.34
2023-04-16T14:29:47.845Z,100349.13
2023-04-16T14:32:14.901Z,100351.59
2023-04-16T14:34:41.699Z,100345.75
2023-04-16T14:37:08.537Z,100349.59
2023-04-16T14:39:36.660Z,100349.44
2023-04-16T14:42:03.402Z,100345.28
2023-04-16T14:44:30.229Z,100344.75
2023-04-16T14:46:57.189Z,100353.91
2023-04-16T14:49:24.163Z,100352.25
2023-04-16T14:51:52.381Z,100343.06
2023-04-16T14:54:19.982Z,100342.19
2023-04-16T14:56:47.493Z,100342.72
2023-04-16T14:59:14.266Z,100342.84
2023-04-16T15:01:41.587Z,100348.31
2023-04-16T15:04:09.202Z,100348.16
2023-04-16T15:06:36.575Z,100344.16
2023-04-16T15:09:04.050Z,100347.47
2023-04-16T15:11:30.933Z,100341.81
2023-04-16T15:13:57.682Z,100346.09
2023-04-16T15:16:24.877Z,100340.81
2023-04-16T15:18:52.826Z,100341.97
2023-04-16T15:21:19.604Z,100345.59
2023-04-16T15:23:46.330Z,100349.78
2023-04-16T15:26:13.190Z,100356.44
2023-04-16T15:28:39.925Z,100351.41
2023-04-16T15:31:06.801Z,100344.63
2023-04-16T15:33:33.627Z,100351.41
2023-04-16T15:36:00.398Z,100356.06
2023-04-16T15:38:29.782Z,100350.81
2023-04-16T15:40:59.867Z,100350.28
2023-04-16T15:43:29.977Z,100360.06
2023-04-16T15:45:57.339Z,100353.56
2023-04-16T15:48:24.467Z,100362.50
2023-04-16T15:50:51.666Z,100360.44
2023-04-16T15:53:18.477Z,100367.19
2023-04-16T15:55:45.416Z,100370.47
2023-04-16T15:58:12.956Z,100365.84
2023-04-16T16:00:39.785Z,100364.78
2023-04-16T16:03:06.818Z,100373.75
2023-04-16T16:05:33.696Z,100370.78
2023-04-16T16:08:01.675Z,100379.56
2023-04-16T16:10:28.910Z,100368.94
2023-04-16T16:12:57.218Z,100370.88
2023-04-16T16:15:23.966Z,100374.91
2023-04-16T16:17:52.861Z,100374.03
2023-04-16T16:20:19.842Z,100370.50
2023-04-16T16:22:48.310Z,100356.75
2023-04-16T16:25:15.188Z,100359.28
2023-04-16T16:27:42.149Z,100355.41
2023-04-16T16:30:09.628Z,100359.97
2023-04-16T16:32:37.690Z,100352.31
2023-04-16T16:35:04.599Z,100345.19
2023-04-16T16:37:31.352Z,100339.38
2023-04-16T16:39:58.103Z,100328.22
2023-04-16T16:42:24.872Z,100328.53
2023-04-16T16:44:51.662Z,100331.03
2023-04-16T16:47:18.593Z,100340.34
2023-04-16T16:49:45.644Z,100330.41
2023-04-16T16:52:12.483Z,100319.78
2023-04-16T16:54:39.208Z,100322.16
2023-04-16T16:57:05.899Z,100324.94
2023-04-16T16:59:32.639Z,100326.75
2023-04-16T17:01:59.413Z,100333.44
2023-04-16T17:04:26.335Z,100329.78
2023-04-16T17:06:53.219Z,100328.44
2023-04-16T17:09:20.212Z,100319.69
2023-04-16T17:11:47.164Z,100330.44
2023-04-16T17:14:13.960Z,100331.44
2023-04-16T17:16:40.788Z,100333.25
2023-04-16T17:19:07.546Z,100335.09
2023-04-16T17:21:34.257Z,100339.03
2023-04-16T17:24:01.096Z,100325.78
2023-04-16T17:26:27.851Z,100335.81
2023-04-16T17:28:56.709Z,100349.63
2023-04-16T17:31:24.988Z,100349.25
2023-04-16T17:33:53.689Z,100359.22
2023-04-16T17:36:22.888Z,100351.06
2023-04-16T17:38:50.639Z,100356.72
2023-04-16T17:41:17.395Z,100364.84
2023-04-16T17:43:44.124Z,100372.59
2023-04-16T17:46:11.864Z,100360.19
2023-04-16T17:48:38.658Z,100369.66
2023-04-16T17:51:10.453Z,100376.47
2023-04-16T17:53:37.279Z,100378.75
2023-04-16T17:56:04.140Z,100372.97
2023-04-16T17:58:35.305Z,100370.09
2023-04-16T18:01:03.330Z,100375.94
2023-04-16T18:03:30.173Z,100376.59
2023-04-16T18:05:57.124Z,100373.13
2023-04-16T18:08:24.587Z,100374.94
2023-04-16T18:10:52.106Z,100369.16
2023-04-16T18:13:18.885Z,100370.94
2023-04-16T18:15:45.680Z,100380.94
2023-04-16T18:18:12.366Z,100395.03
2023-04-16T18:20:39.063Z,100399.50
2023-04-16T18:23:05.963Z,100387.22
2023-04-16T18:25:35.228Z,100401.84
2023-04-16T18:28:03.843Z,100396.84
2023-04-16T18:30:30.884Z,100400.03
2023-04-16T18:35:27.300Z,100406.31
2023-04-16T18:37:54.010Z,100399.03
2023-04-16T18:40:20.887Z,100402.22
2023-04-16T18:42:47.689Z,100403.56
2023-04-16T18:45:19.591Z,100408.88
2023-04-16T18:47:48.327Z,100401.06
2023-04-16T18:50:15.050Z,100401.38
2023-04-16T18:52:41.975Z,100409.53
2023-04-16T18:55:09.044Z,100414.84
2023-04-16T18:57:35.876Z,100409.09
2023-04-16T19:00:09.044Z,100394.63
2023-04-16T19:02:35.991Z,100411.25
2023-04-16T19:05:02.654Z,100411.97
2023-04-16T19:07:29.485Z,100416.09
2023-04-16T19:09:56.508Z,100404.13
2023-04-16T19:12:23.453Z,100401.84
2023-04-16T19:14:50.292Z,100395.56
2023-04-16T19:17:17.181Z,100394.84
2023-04-16T19:19:43.975Z,100392.91
2023-04-16T19:22:10.835Z,100371.94
2023-04-16T19:24:37.545Z,100377.06
2023-04-16T19:27:04.293Z,100388.34
2023-04-16T19:29:35.038Z,100392.19
2023-04-16T19:32:02.611Z,100382.72
2023-04-16T19:34:29.424Z,100388.19
2023-04-16T19:36:56.260Z,100380.72
2023-04-16T19:39:26.824Z,100387.47
2023-04-16T19:41:53.661Z,100385.00
2023-04-16T19:44:22.434Z,100388.63
2023-04-16T19:46:49.195Z,100388.94
2023-04-16T19:49:16.051Z,100387.28
2023-04-16T19:51:42.888Z,100385.97
2023-04-16T19:54:09.649Z,100383.78
2023-04-16T19:56:36.697Z,100386.28
2023-04-16T19:59:03.404Z,100379.16
2023-04-16T20:01:32.874Z,100380.31
2023-04-16T20:03:59.691Z,100384.78
2023-04-16T20:06:26.862Z,100378.47
2023-04-16T20:08:53.987Z,100378.31
2023-04-16T20:11:20.865Z,100369.00
2023-04-16T20:13:54.456Z,100369.00
2023-04-16T20:16:24.104Z,100369.69
2023-04-16T20:18:54.228Z,100362.88
2023-04-16T20:21:25.182Z,100366.03
2023-04-16T20:23:52.351Z,100367.38
2023-04-16T20:26:19.330Z,100374.53
2023-04-16T20:28:46.292Z,100373.56
2023-04-16T20:31:13.056Z,100373.91
2023-04-16T20:33:40.072Z,100362.78
2023-04-16T20:36:07.280Z,100364.75
2023-04-16T20:38:35.540Z,100358.28
2023-04-16T20:41:12.478Z,100362.09
2023-04-16T20:43:42.060Z,100362.78
2023-04-16T20:46:09.254Z,100351.47
2023-04-16T20:48:35.967Z,100363.28
2023-04-16T20:51:04.233Z,100343.81
2023-04-16T20:53:32.410Z,100355.16
2023-04-16T20:56:00.596Z,100353.69
2023-04-16T20:58:27.547Z,100342.88
2023-04-16T21:00:56.795Z,100341.69
2023-04-16T21:03:24.560Z,100346.00
2023-04-16T21:05:54.777Z,100351.16
2023-04-16T21:08:22.396Z,100349.81
2023-04-16T21:10:50.035Z,100352.97
2023-04-16T21:13:17.056Z,100349.81
2023-04-16T21:15:45.523Z,100349.66
2023-04-16T21:18:12.848Z,100353.63
2023-04-16T21:20:40.012Z,100355.94
2023-04-16T21:23:06.993Z,100358.06
2023-04-16T21:25:33.765Z,100356.94
2023-04-16T21:28:00.611Z,100352.28
2023-04-16T21:30:27.578Z,100363.53
2023-04-16T21:32:54.857Z,100350.81
2023-04-16T21:35:21.639Z,100359.09
2023-04-16T21:37:48.391Z,100355.13
2023-04-16T21:40:15.125Z,100367.03
2023-04-16T21:42:42.491Z,100361.41
2023-04-16T21:45:10.419Z,100357.41
2023-04-16T21:47:38.415Z,100359.97
2023-04-16T21:50:05.920Z,100369.06
2023-04-16T21:52:33.133Z,100348.59
2023-04-16T21:55:00.535Z,100348.59
2023-04-16T21:57:27.278Z,100356.13
2023-04-16T21:59:54.036Z,100359.09
2023-04-16T22:02:20.946Z,100351.13
2023-04-16T22:04:48.682Z,100364.41
2023-04-16T22:07:16.954Z,100364.41
2023-04-16T22:09:43.949Z,100353.09
2023-04-16T22:12:10.691Z,100346.81
2023-04-16T22:14:43.966Z,100357.78
2023-04-16T22:17:11.144Z,100361.25
2023-04-16T22:19:39.303Z,100354.13
2023-04-16T22:22:06.302Z,100356.13
2023-04-16T22:24:32.981Z,100356.13
2023-04-16T22:26:59.854Z,100341.00
2023-04-16T22:29:26.556Z,100334.56
2023-04-16T22:31:53.389Z,100324.06
2023-04-16T22:34:20.309Z,100331.69
2023-04-16T22:36:47.604Z,100330.03
2023-04-16T22:39:14.608Z,100323.03
2023-04-16T22:41:41.594Z,100336.13
2023-04-16T22:44:08.428Z,100331.31
2023-04-16T22:46:35.345Z,100325.69
2023-04-16T22:49:02.727Z,100313.19
2023-04-16T22:51:30.709Z,100331.44
2023-04-16T22:53:57.452Z,100323.63
2023-04-16T22:56:28.724Z,100328.00
2023-04-16T22:58:55.966Z,100323.63
2023-04-16T23:01:23.776Z,100332.78
2023-04-16T23:03:50.565Z,100320.81
2023-04-16T23:06:17.292Z,100324.88
2023-04-16T23:08:44.010Z,100306.47
2023-04-16T23:11:10.814Z,100311.31
2023-04-16T23:13:37.675Z,100312.81
2023-04-16T23:16:04.702Z,100310.31
2023-04-16T23:18:31.703Z,100285.13
2023-04-16T23:20:58.389Z,100295.72
2023-04-16T23:23:25.197Z,100293.94
2023-04-16T23:25:55.115Z,100300.72
2023-04-16T23:28:22.235Z,100292.91
2023-04-16T23:30:52.883Z,100286.41
2023-04-16T23:33:19.831Z,100281.47
2023-04-16T23:35:47.430Z,100278.81
2023-04-16T23:38:14.248Z,100275.03
2023-04-16T23:40:41.273Z,100267.56
2023-04-16T23:43:08.027Z,100267.56
2023-04-16T23:45:34.791Z,100266.69
2023-04-16T23:48:01.804Z,100264.03
2023-04-16T23:50:28.547Z,100268.69
2023-04-16T23:52:55.386Z,100244.41
2023-04-16T23:55:22.083Z,100258.69
2023-04-16T23:57:48.803Z,100258.69
